Lock Haven, PA

5:22 PM EST on December 17, 2014 (GMT -0500)
KB3TII | Change Station
CLOSE
Current Station
Personal Weather Station
Location: Lock Haven, PA
Elevation: 558 ft
Nearby Weather Stations

Elev 558 ft 41.14 °N, 77.43 °W | Updated 3 minutes ago

Overcast
Overcast
38.7 °F
Feels Like 34 °F
N
6.8
Wind Variable Wind from NW

Today
High -- | Low -- °F
--% Chance of Precip.
Yesterday
High -- | Low -- °F
Precip. -- in
7:29 AM 4:42 PM
Waning Crescent, 19% visible
Pressure 29.96 in
Visibility 10.0 miles
Clouds Overcast 5500 ft
Windchill 34 °F
Dew Point 25 °F
Humidity 57%
Rainfall 0.00 in
Snow Depth Not available.
UV 0 out of 12
Pollen .10 out of 12
Air Quality Not available.
Flu Activity Not available.
METAR KIPT 172154Z 27008KT 10SM OVC055 03/M01 A2995 RMK AO2 RAB2059E17 SLP144 P0000 T00331006

More Conditions Fewer Conditions

Pressure 29.96 in
Visibility 10.0 miles
Clouds Overcast 5500 ft
Windchill 34 °F
Dew Point 25 °F
Humidity 57%
Rainfall 0.00 in
Snow Depth Not available.
UV 0 out of 12
Pollen .10 out of 12
Air Quality Not available.
Flu Activity Not available.
METAR KIPT 172154Z 27008KT 10SM OVC055 03/M01 A2995 RMK AO2 RAB2059E17 SLP144 P0000 T00331006

More Conditions Fewer Conditions

10-Day Weather Forecast

Almanac

Astronomy

Dec. 17, 2014 Rise Set
Actual Time
Civil Twilight
Nautical Twilight
Astronomical Twilight
Moon
Length of Visible Light
Length of Day
Tomorrow will be .
, % of the Moon is Illuminated

Today's Extremes

State Highs State Lows

Community

WunderPhotos

Upload Photos

1,778,811 photos uploaded!

WunderBlogs® & News

Nearby

Air Quality

  Air Quality AQ Index Pollutant
Not available.

Snow Depth

Station Depth Elevation

Earthquake Activity

City Distance Mag. Time & Date
Minimum magnitude displayed is 2.5.

Coastal Water Temperatures

Place Temperature

Nearby Weather Stations